Time;durP1;ratioP1;P1;durP2;ratioP2;P2;SDS_P1;SDS_P2;PMS_P1;PMS_P2;Temp;Humidity;BMP_temperature;BMP_pressure;BME280_temperature;BME280_humidity;BME280_pressure;Samples;Min_cycle;Max_cycle;Signal;HPM_P1;HPM_P2
2022/01/06 00:00:37;;;;;;;9.93;2.28;;;;;;;1.74;100.00;101442.84;5067020;28;20048;-75
2022/01/06 00:03:02;;;;;;;8.63;2.17;;;;;;;1.71;100.00;101432.38;5064971;28;20033;-75
2022/01/06 00:05:28;;;;;;;6.80;1.50;;;;;;;1.82;100.00;101457.63;5061161;28;20468;-76
2022/01/06 00:07:53;;;;;;;15.50;3.00;;;;;;;1.66;100.00;101439.56;5058516;28;20025;-75
2022/01/06 00:10:19;;;;;;;12.43;1.92;;;;;;;1.70;100.00;101440.34;5060391;28;20427;-75
2022/01/06 00:12:52;;;;;;;11.85;2.28;;;;;;;1.76;100.00;101446.28;5062793;28;20032;-75
2022/01/06 00:23:38;;;;;;;12.55;2.47;;;;;;;1.67;100.00;101459.84;5059432;28;20044;-75
2022/01/06 00:26:04;;;;;;;8.88;2.13;;;;;;;1.67;100.00;101457.19;5066638;28;20023;-74
2022/01/06 00:28:30;;;;;;;12.40;3.03;;;;;;;1.62;100.00;101462.59;5045952;28;20099;-75
2022/01/06 00:30:56;;;;;;;13.93;2.08;;;;;;;1.58;100.00;101457.47;5050186;28;20162;-75
2022/01/06 00:33:21;;;;;;;9.85;2.63;;;;;;;1.54;100.00;101453.16;5061431;28;20089;-75
2022/01/06 00:35:46;;;;;;;11.40;2.45;;;;;;;1.53;100.00;101459.38;5065932;28;20383;-75
2022/01/06 00:38:12;;;;;;;10.75;2.45;;;;;;;1.59;100.00;101468.00;5066507;28;20025;-75
2022/01/06 00:40:37;;;;;;;11.52;2.58;;;;;;;1.62;100.00;101475.00;5073552;28;20031;-74
2022/01/06 00:43:04;;;;;;;15.70;1.95;;;;;;;1.56;100.00;101473.41;5049175;28;20029;-74
2022/01/06 00:45:31;;;;;;;14.65;2.35;;;;;;;1.54;100.00;101475.22;5066134;28;20032;-75
2022/01/06 00:47:56;;;;;;;13.65;1.83;;;;;;;1.55;100.00;101466.38;5063512;28;20033;-75
2022/01/06 00:50:22;;;;;;;15.32;2.70;;;;;;;1.47;100.00;101476.31;5065006;28;20032;-75
2022/01/06 00:52:48;;;;;;;10.35;1.75;;;;;;;1.54;100.00;101475.22;5061357;28;20086;-75
2022/01/06 00:55:13;;;;;;;13.18;1.70;;;;;;;1.58;100.00;101470.69;5065275;28;20413;-74
2022/01/06 00:57:38;;;;;;;12.07;2.28;;;;;;;1.64;100.00;101486.41;5065483;28;20059;-75
2022/01/06 01:00:05;;;;;;;9.93;2.08;;;;;;;1.58;100.00;101483.94;5064181;28;20349;-75
2022/01/06 01:02:30;;;;;;;11.73;3.35;;;;;;;1.71;100.00;101487.06;5064719;28;20040;-75
2022/01/06 01:04:56;;;;;;;13.40;2.40;;;;;;;1.64;100.00;101484.59;5064871;28;20685;-75
2022/01/06 01:07:21;;;;;;;22.25;2.63;;;;;;;1.53;100.00;101467.31;5062462;28;20032;-75
2022/01/06 01:09:46;;;;;;;6.63;1.92;;;;;;;1.45;100.00;101465.78;5058346;28;20028;-75
2022/01/06 01:12:12;;;;;;;11.82;2.72;;;;;;;1.39;100.00;101465.97;5060944;28;20048;-75
2022/01/06 01:14:57;;;;;;;16.58;2.15;;;;;;;1.44;100.00;101482.56;5062294;28;20484;-75
2022/01/06 01:17:25;;;;;;;11.80;2.28;;;;;;;1.37;100.00;101477.47;5049397;28;20592;-75
2022/01/06 01:19:50;;;;;;;11.98;2.13;;;;;;;1.43;100.00;101496.72;5043361;28;20028;-75
2022/01/06 01:22:15;;;;;;;11.48;2.72;;;;;;;1.38;100.00;101495.97;5063408;28;20040;-75
2022/01/06 01:24:41;;;;;;;12.98;2.45;;;;;;;1.38;100.00;101495.97;5064558;28;20170;-74
2022/01/06 01:27:07;;;;;;;9.23;2.63;;;;;;;1.25;100.00;101484.00;5062569;28;20479;-74
2022/01/06 01:29:40;;;;;;;16.30;2.63;;;;;;;1.36;100.00;101500.44;5060561;28;20020;-75
2022/01/06 01:32:06;;;;;;;14.85;2.20;;;;;;;1.26;100.00;101497.19;5061308;28;23106;-75
2022/01/06 01:34:31;;;;;;;11.18;1.98;;;;;;;1.17;100.00;101490.41;5061521;28;20031;-75
2022/01/06 01:36:56;;;;;;;14.98;2.80;;;;;;;1.20;100.00;101487.63;5061831;28;20028;-75
2022/01/06 01:39:22;;;;;;;8.93;2.15;;;;;;;1.24;100.00;101511.38;5058314;28;20245;-75
2022/01/06 01:41:48;;;;;;;13.85;2.75;;;;;;;1.14;100.00;101498.41;5046839;28;20029;-75
2022/01/06 01:44:16;;;;;;;17.75;2.67;;;;;;;1.20;100.00;101522.03;5046104;28;20090;-74
2022/01/06 01:46:45;;;;;;;13.45;1.92;;;;;;;1.18;100.00;101520.34;5054866;28;20035;-75
2022/01/06 01:51:37;;;;;;;17.55;2.05;;;;;;;1.02;100.00;101517.25;5057042;28;20042;-75
2022/01/06 01:54:03;;;;;;;14.38;2.10;;;;;;;1.07;100.00;101533.88;5059565;28;20465;-75
2022/01/06 01:56:29;;;;;;;17.95;2.75;;;;;;;1.04;100.00;101531.31;5061813;28;20043;-74
2022/01/06 01:58:55;;;;;;;5.85;1.80;;;;;;;1.02;100.00;101538.41;5064440;28;20385;-74
2022/01/06 02:01:20;;;;;;;12.18;2.38;;;;;;;1.01;100.00;101548.13;5059771;28;20031;-74
2022/01/06 02:03:45;;;;;;;14.43;2.30;;;;;;;0.98;100.00;101553.50;5065081;28;20438;-75
2022/01/06 02:06:11;;;;;;;5.88;1.45;;;;;;;0.96;100.00;101546.50;5053719;28;20088;-75
2022/01/06 02:08:36;;;;;;;7.80;1.60;;;;;;;0.97;100.00;101559.69;5062713;28;20027;-75
2022/01/06 02:11:02;;;;;;;12.85;2.35;;;;;;;0.94;100.00;101554.47;5061148;28;20032;-75
2022/01/06 02:13:30;;;;;;;13.20;1.90;;;;;;;0.85;100.00;101545.00;5060418;28;20062;-75
2022/01/06 02:15:59;;;;;;;6.68;1.60;;;;;;;0.88;100.00;101566.09;5062707;28;20036;-75
2022/01/06 02:18:24;;;;;;;8.77;1.48;;;;;;;0.83;100.00;101557.41;5061497;28;20035;-75
2022/01/06 02:20:50;;;;;;;11.07;1.83;;;;;;;0.79;100.00;101568.09;5062799;28;20474;-75
2022/01/06 02:23:15;;;;;;;11.02;2.03;;;;;;;0.77;100.00;101560.19;5057861;28;20375;-75
2022/01/06 02:25:40;;;;;;;10.93;2.30;;;;;;;0.76;100.00;101553.16;5042640;28;20072;-75
2022/01/06 02:28:06;;;;;;;9.15;1.83;;;;;;;0.80;100.00;101564.53;5062646;28;20121;-75
2022/01/06 02:30:33;;;;;;;9.50;1.98;;;;;;;0.82;100.00;101574.19;5042432;28;20381;-75
2022/01/06 02:33:01;;;;;;;9.35;2.58;;;;;;;0.84;100.00;101567.06;5058165;28;20032;-75
2022/01/06 02:35:27;;;;;;;13.13;2.47;;;;;;;0.84;100.00;101571.47;5061782;28;20039;-75
2022/01/06 02:37:53;;;;;;;10.18;1.58;;;;;;;0.82;100.00;101560.94;5060969;28;20027;-75
2022/01/06 02:40:24;;;;;;;6.63;1.80;;;;;;;0.79;100.00;101554.88;5061537;28;20095;-75
2022/01/06 02:42:52;;;;;;;8.02;2.20;;;;;;;0.81;100.00;101568.91;5059001;28;20024;-74
2022/01/06 02:45:19;;;;;;;9.55;1.85;;;;;;;0.81;100.00;101574.19;5064703;28;20029;-75
2022/01/06 02:47:45;;;;;;;9.70;1.88;;;;;;;0.88;100.00;101574.03;5059895;28;20052;-75
2022/01/06 02:50:11;;;;;;;6.18;1.92;;;;;;;0.82;100.00;101581.22;5056805;28;20036;-75
2022/01/06 02:52:37;;;;;;;14.13;2.35;;;;;;;0.85;100.00;101581.16;5055100;28;20528;-75
2022/01/06 02:55:06;;;;;;;15.35;2.00;;;;;;;0.82;100.00;101576.81;5064050;28;20036;-74
2022/01/06 02:57:32;;;;;;;11.07;2.22;;;;;;;0.71;100.00;101566.50;5058850;28;20028;-75
2022/01/06 02:59:57;;;;;;;9.20;2.15;;;;;;;0.80;100.00;101572.47;5060444;28;20025;-75
2022/01/06 03:02:24;;;;;;;10.88;1.73;;;;;;;0.76;100.00;101566.38;5058044;28;20090;-74
2022/01/06 03:04:49;;;;;;;11.93;2.08;;;;;;;0.77;100.00;101564.63;5064223;28;20031;-75
2022/01/06 03:07:14;;;;;;;10.07;3.00;;;;;;;0.69;100.00;101562.16;5047956;28;20597;-76
2022/01/06 03:09:42;;;;;;;6.22;2.03;;;;;;;0.77;100.00;101564.63;5066570;28;20124;-75
2022/01/06 03:12:22;;;;;;;13.30;2.38;;;;;;;0.76;100.00;101569.03;5069320;28;20032;-75
2022/01/06 03:14:47;;;;;;;8.73;2.85;;;;;;;0.73;100.00;101563.81;5070304;28;20028;-74
2022/01/06 03:17:13;;;;;;;15.13;2.50;;;;;;;0.78;100.00;101577.78;5067781;28;20036;-74
2022/01/06 03:19:38;;;;;;;13.68;2.47;;;;;;;0.74;100.00;101584.06;5065886;28;20386;-75
2022/01/06 03:22:03;;;;;;;13.70;3.05;;;;;;;0.64;100.00;101582.56;5066008;28;20462;-74
2022/01/06 03:24:29;;;;;;;14.32;2.28;;;;;;;0.76;100.00;101581.41;5067553;28;20035;-75
2022/01/06 03:26:54;;;;;;;12.77;2.08;;;;;;;0.62;100.00;101568.53;5072502;28;20074;-74
2022/01/06 03:29:19;;;;;;;15.45;2.75;;;;;;;0.70;100.00;101585.91;5062278;28;20206;-75
2022/01/06 03:31:45;;;;;;;12.70;1.92;;;;;;;0.65;100.00;101587.81;5067743;28;20028;-75
2022/01/06 03:34:10;;;;;;;13.20;2.17;;;;;;;0.72;100.00;101591.16;5067073;28;20031;-75
2022/01/06 03:36:36;;;;;;;6.45;1.58;;;;;;;0.62;100.00;101593.16;5068668;28;20035;-76
2022/01/06 03:39:03;;;;;;;8.27;1.55;;;;;;;0.66;100.00;101599.25;5067905;28;20020;-75
2022/01/06 03:41:28;;;;;;;10.07;2.30;;;;;;;0.65;100.00;101594.88;5065627;28;20048;-75
2022/01/06 03:43:54;;;;;;;9.10;2.10;;;;;;;0.65;100.00;101597.53;5063798;28;20412;-75
2022/01/06 03:46:19;;;;;;;17.92;5.03;;;;;;;0.57;100.00;101592.41;5051138;28;20035;-75
2022/01/06 03:48:44;;;;;;;15.15;2.55;;;;;;;0.59;100.00;101596.75;5063562;28;20424;-75
2022/01/06 03:51:09;;;;;;;6.20;1.85;;;;;;;0.59;100.00;101601.16;5061338;28;20497;-76
2022/01/06 03:53:35;;;;;;;10.18;2.42;;;;;;;0.50;100.00;101593.47;5065916;28;20548;-75
2022/01/06 03:56:00;;;;;;;12.10;2.08;;;;;;;0.61;100.00;101604.63;5065309;28;20445;-75
2022/01/06 03:58:25;;;;;;;9.77;1.98;;;;;;;0.57;100.00;101605.59;5062037;28;20029;-75
2022/01/06 04:00:51;;;;;;;7.30;2.15;;;;;;;0.61;100.00;101609.91;5063314;28;20032;-75
2022/01/06 04:03:16;;;;;;;15.48;2.00;;;;;;;0.61;100.00;101611.72;5057805;28;20037;-75
2022/01/06 04:05:41;;;;;;;7.68;2.00;;;;;;;0.51;100.00;101609.28;5057781;28;20102;-75
2022/01/06 04:08:07;;;;;;;10.80;2.20;;;;;;;0.51;100.00;101605.78;5065878;28;20468;-75
2022/01/06 04:10:32;;;;;;;14.05;2.53;;;;;;;0.55;100.00;101618.88;5059935;28;20391;-75
2022/01/06 04:12:57;;;;;;;10.23;2.40;;;;;;;0.43;100.00;101605.94;5065141;28;20025;-75
2022/01/06 04:15:26;;;;;;;11.23;2.72;;;;;;;0.46;100.00;101605.88;5055999;28;20724;-75
2022/01/06 04:17:51;;;;;;;16.25;2.88;;;;;;;0.41;100.00;101613.91;5064513;28;20105;-75
2022/01/06 04:20:17;;;;;;;10.68;2.22;;;;;;;0.40;100.00;101613.94;5077632;28;20128;-75
2022/01/06 04:22:42;;;;;;;11.07;1.55;;;;;;;0.37;100.00;101624.59;5062582;28;20097;-75
2022/01/06 04:25:08;;;;;;;16.50;2.17;;;;;;;0.29;100.00;101616.81;5082477;28;20299;-75
2022/01/06 04:27:33;;;;;;;14.80;2.67;;;;;;;0.27;100.00;101638.00;5059493;28;20592;-75
2022/01/06 04:29:59;;;;;;;11.45;2.33;;;;;;;0.24;100.00;101631.91;5064680;28;20041;-75
2022/01/06 04:32:24;;;;;;;9.45;2.15;;;;;;;0.20;100.00;101644.31;5057233;28;20036;-75
2022/01/06 04:34:49;;;;;;;12.90;2.03;;;;;;;0.11;100.00;101633.97;5063451;28;20524;-75
2022/01/06 04:37:15;;;;;;;6.28;1.45;;;;;;;0.13;100.00;101645.34;5045307;28;20032;-76
2022/01/06 04:39:40;;;;;;;8.93;1.80;;;;;;;0.07;100.00;101648.13;5063510;28;20115;-75
2022/01/06 04:42:05;;;;;;;8.90;2.00;;;;;;;0.01;100.00;101642.97;5060034;28;20032;-75
2022/01/06 04:44:30;;;;;;;7.55;2.40;;;;;;;0.04;100.00;101643.75;5064300;28;20029;-75
2022/01/06 04:46:56;;;;;;;12.55;3.28;;;;;;;0.07;100.00;101654.25;5061077;28;20036;-75
2022/01/06 04:49:22;;;;;;;15.32;2.10;;;;;;;0.03;100.00;101649.94;5047816;28;20056;-75
2022/01/06 04:51:48;;;;;;;8.07;1.95;;;;;;;0.01;100.00;101641.16;5045215;28;20028;-74
2022/01/06 04:54:13;;;;;;;10.07;2.30;;;;;;;0.04;100.00;101649.03;5062388;28;20043;-75
2022/01/06 04:56:38;;;;;;;13.10;2.25;;;;;;;0.07;100.00;101662.19;5062717;28;20070;-75
2022/01/06 04:59:07;;;;;;;10.00;1.70;;;;;;;0.07;100.00;101664.81;5064406;28;20608;-75
2022/01/06 05:01:32;;;;;;;10.60;2.00;;;;;;;0.03;100.00;101654.38;5056103;28;20028;-75
2022/01/06 05:03:58;;;;;;;13.65;2.00;;;;;;;0.06;100.00;101673.63;5060658;28;20036;-75
2022/01/06 05:06:23;;;;;;;7.18;2.22;;;;;;;-0.04;100.00;101667.69;5044597;28;20434;-75
2022/01/06 05:08:48;;;;;;;8.38;1.65;;;;;;;-0.07;100.00;101659.81;5061972;28;20020;-76
2022/01/06 05:11:14;;;;;;;12.77;2.13;;;;;;;-0.02;100.00;101668.53;5053778;28;20131;-75
2022/01/06 05:13:39;;;;;;;11.60;2.53;;;;;;;-0.05;100.00;101658.03;5063825;28;20405;-74
2022/01/06 05:16:04;;;;;;;5.60;2.10;;;;;;;-0.04;100.00;101670.31;5067674;28;20021;-75
2022/01/06 05:18:29;;;;;;;9.95;2.13;;;;;;;-0.08;100.00;101665.16;5046562;28;20032;-75
2022/01/06 05:20:55;;;;;;;10.75;2.00;;;;;;;-0.04;100.00;101694.09;5066966;28;20056;-75
2022/01/06 05:23:20;;;;;;;10.35;2.20;;;;;;;-0.16;100.00;101683.78;5066158;28;20063;-75
2022/01/06 05:25:46;;;;;;;9.98;2.03;;;;;;;-0.12;100.00;101693.34;5067164;28;20103;-75
2022/01/06 05:28:11;;;;;;;13.55;2.45;;;;;;;-0.05;100.00;101692.34;5064437;28;20031;-75
2022/01/06 05:30:36;;;;;;;8.60;2.03;;;;;;;-0.07;100.00;101693.28;5046657;28;20101;-75
2022/01/06 05:33:02;;;;;;;5.65;1.40;;;;;;;-0.05;100.00;101694.97;5062500;28;20141;-75
2022/01/06 05:35:27;;;;;;;8.25;1.75;;;;;;;-0.09;100.00;101689.81;5063793;28;20017;-75
2022/01/06 05:37:52;;;;;;;4.75;1.67;;;;;;;-0.07;100.00;101698.56;5062537;28;20077;-74
2022/01/06 05:40:18;;;;;;;5.85;1.50;;;;;;;-0.05;100.00;101699.41;5066379;28;20028;-71
2022/01/06 05:42:43;;;;;;;9.50;2.17;;;;;;;-0.11;100.00;101697.72;5063482;28;20032;-83
2022/01/06 05:45:11;;;;;;;11.05;1.75;;;;;;;-0.10;100.00;101694.19;5047288;28;20119;-71
2022/01/06 05:47:36;;;;;;;8.65;1.65;;;;;;;-0.09;100.00;101692.44;5058031;28;20386;-76
2022/01/06 05:50:03;;;;;;;18.95;2.15;;;;;;;-0.12;100.00;101705.69;5056685;28;20045;-77
2022/01/06 05:52:28;;;;;;;7.53;1.60;;;;;;;-0.13;100.00;101702.19;5045203;28;20021;-77
2022/01/06 05:54:53;;;;;;;9.43;1.92;;;;;;;-0.16;100.00;101699.63;5063839;28;20503;-77
2022/01/06 05:57:19;;;;;;;10.80;1.52;;;;;;;-0.18;100.00;101698.78;5062430;28;20115;-74
2022/01/06 05:59:45;;;;;;;13.63;2.25;;;;;;;-0.10;100.00;101707.41;5062091;28;20381;-75
2022/01/06 06:02:10;;;;;;;12.65;2.55;;;;;;;-0.11;100.00;101703.00;5041614;28;20028;-73
2022/01/06 06:04:35;;;;;;;8.25;1.63;;;;;;;-0.11;100.00;101708.28;5056338;28;21332;-74
2022/01/06 06:07:01;;;;;;;10.50;1.70;;;;;;;-0.08;100.00;101705.59;5059529;28;20040;-74
2022/01/06 06:09:26;;;;;;;12.05;1.90;;;;;;;-0.05;100.00;101715.25;5060509;28;20103;-75
2022/01/06 06:11:51;;;;;;;5.70;1.77;;;;;;;-0.03;100.00;101713.44;5057608;28;20037;-74
2022/01/06 06:14:17;;;;;;;14.50;2.03;;;;;;;-0.01;100.00;101725.72;5044991;28;20032;-74
2022/01/06 06:16:42;;;;;;;13.23;2.38;;;;;;;0.04;100.00;101733.53;5058112;28;20039;-75
2022/01/06 06:19:07;;;;;;;8.18;1.73;;;;;;;0.04;100.00;101738.81;5059704;28;20025;-74
2022/01/06 06:21:33;;;;;;;6.93;2.85;;;;;;;0.06;100.00;101750.22;5059985;28;20025;-75
2022/01/06 06:23:58;;;;;;;17.00;3.28;;;;;;;0.05;100.00;101751.13;5057285;28;20035;-73
2022/01/06 06:26:23;;;;;;;11.50;3.35;;;;;;;-0.04;100.00;101735.47;5060220;28;20525;-74
2022/01/06 06:28:49;;;;;;;10.98;3.03;;;;;;;-0.09;100.00;101745.25;5043531;28;20040;-73
2022/01/06 06:31:14;;;;;;;8.40;1.85;;;;;;;-0.05;100.00;101746.94;5055362;28;20648;-73
2022/01/06 06:33:39;;;;;;;7.50;1.50;;;;;;;-0.04;100.00;101752.16;5060317;28;20360;-75
2022/01/06 06:36:05;;;;;;;7.70;1.88;;;;;;;-0.06;100.00;101753.97;5057313;28;20091;-73
2022/01/06 06:38:30;;;;;;;11.13;1.80;;;;;;;-0.15;100.00;101746.25;5056974;28;20482;-74
2022/01/06 06:40:55;;;;;;;5.88;1.85;;;;;;;-0.07;100.00;101765.44;5056940;28;20028;-74
2022/01/06 06:43:21;;;;;;;6.13;1.90;;;;;;;-0.20;100.00;101751.59;5062153;28;20036;-74
2022/01/06 06:45:46;;;;;;;10.90;2.63;;;;;;;-0.09;100.00;101764.59;5065395;28;20064;-74
2022/01/06 06:48:12;;;;;;;7.47;1.90;;;;;;;-0.07;100.00;101769.84;5064325;28;20062;-74
2022/01/06 06:50:38;;;;;;;5.93;2.00;;;;;;;-0.07;100.00;101767.22;5064490;28;20085;-74
2022/01/06 06:53:03;;;;;;;6.72;1.77;;;;;;;-0.19;100.00;101766.53;5044761;28;20033;-73
2022/01/06 06:55:29;;;;;;;6.75;1.58;;;;;;;-0.18;100.00;101783.25;5044247;28;20036;-75
2022/01/06 06:57:55;;;;;;;6.65;1.65;;;;;;;-0.19;100.00;101774.44;5064846;28;20024;-73
2022/01/06 07:00:20;;;;;;;5.75;1.70;;;;;;;-0.20;100.00;101779.75;5046367;28;20509;-77
2022/01/06 07:02:46;;;;;;;5.10;1.98;;;;;;;-0.21;100.00;101770.09;5045778;28;20032;-76
2022/01/06 07:05:12;;;;;;;9.63;1.80;;;;;;;-0.17;100.00;101790.28;5045497;28;20556;-77
2022/01/06 07:07:37;;;;;;;12.57;2.28;;;;;;;-0.18;100.00;101788.53;5059555;28;20062;-76
2022/01/06 07:10:04;;;;;;;7.22;2.00;;;;;;;-0.16;100.00;101789.38;5046675;28;20115;-76
2022/01/06 07:12:30;;;;;;;7.80;1.95;;;;;;;-0.21;100.00;101791.22;5046548;28;20036;-71
2022/01/06 07:15:00;;;;;;;14.93;2.92;;;;;;;-0.24;100.00;101800.03;5064467;28;20035;-77
2022/01/06 07:17:25;;;;;;;11.57;2.25;;;;;;;-0.25;100.00;101803.56;5046624;28;20055;-75
2022/01/06 07:19:51;;;;;;;14.70;3.33;;;;;;;-0.19;100.00;101811.41;5063340;28;20214;-76
2022/01/06 07:22:16;;;;;;;7.53;2.22;;;;;;;-0.36;100.00;101795.84;5044243;28;20054;-76
2022/01/06 07:24:41;;;;;;;10.35;2.60;;;;;;;-0.30;100.00;101810.72;5062237;28;20068;-76
2022/01/06 07:27:07;;;;;;;16.00;3.38;;;;;;;-0.44;100.00;101807.44;5056227;28;20033;-76
2022/01/06 07:29:32;;;;;;;15.98;2.85;;;;;;;-0.36;100.00;101821.38;5061925;28;20434;-75
2022/01/06 07:31:58;;;;;;;18.45;3.45;;;;;;;-0.37;100.00;101823.13;5064398;28;20036;-76
2022/01/06 07:34:23;;;;;;;12.10;2.85;;;;;;;-0.36;100.00;101822.22;5062447;28;20426;-75
2022/01/06 07:36:48;;;;;;;15.43;2.67;;;;;;;-0.37;100.00;101822.28;5061484;28;20443;-75
2022/01/06 07:39:14;;;;;;;12.50;2.97;;;;;;;-0.39;100.00;101831.97;5066632;28;20032;-76
2022/01/06 07:41:39;;;;;;;15.02;3.10;;;;;;;-0.41;100.00;101836.41;5061729;28;20020;-75
2022/01/06 07:44:07;;;;;;;11.50;2.90;;;;;;;-0.47;100.00;101838.25;5067154;28;20056;-77
2022/01/06 07:46:34;;;;;;;11.65;2.42;;;;;;;-0.50;100.00;101835.66;5057158;28;20111;-76
2022/01/06 07:48:59;;;;;;;7.97;2.78;;;;;;;-0.55;100.00;101841.91;5065335;28;20027;-75
2022/01/06 07:51:25;;;;;;;10.63;2.80;;;;;;;-0.54;100.00;101835.72;5046473;28;20370;-76
2022/01/06 07:53:51;;;;;;;10.20;2.78;;;;;;;-0.50;100.00;101840.06;5061912;28;20048;-76
2022/01/06 07:56:17;;;;;;;9.35;2.88;;;;;;;-0.55;100.00;101841.91;5060052;28;20039;-76
2022/01/06 07:58:42;;;;;;;20.75;4.22;;;;;;;-0.61;100.00;101838.44;5060103;28;20066;-76
2022/01/06 08:01:09;;;;;;;24.63;4.57;;;;;;;-0.61;100.00;101846.38;5060237;28;20505;-75
2022/01/06 08:03:34;;;;;;;9.07;3.30;;;;;;;-0.60;100.00;101855.16;5062384;28;20032;-76
2022/01/06 08:06:00;;;;;;;14.73;3.63;;;;;;;-0.59;100.00;101854.28;5061959;28;20085;-76
2022/01/06 08:08:25;;;;;;;18.75;5.03;;;;;;;-0.53;100.00;101864.72;5061138;28;20028;-76
2022/01/06 08:10:50;;;;;;;24.92;5.53;;;;;;;-0.54;100.00;101862.09;5061008;28;20437;-76
2022/01/06 08:13:16;;;;;;;31.70;4.25;;;;;;;-0.59;100.00;101838.44;5063155;28;20399;-76
2022/01/06 08:15:41;;;;;;;12.18;3.65;;;;;;;-0.49;100.00;101847.09;5058611;28;20313;-75
2022/01/06 08:18:06;;;;;;;15.32;3.80;;;;;;;-0.51;100.00;101833.03;5057576;28;20028;-75
2022/01/06 08:20:32;;;;;;;12.38;3.90;;;;;;;-0.42;100.00;101845.22;5065307;28;20042;-75
2022/01/06 08:22:57;;;;;;;5.72;3.22;;;;;;;-0.34;100.00;101836.28;5045279;28;20059;-75
2022/01/06 08:25:22;;;;;;;14.02;3.90;;;;;;;-0.18;100.00;101842.19;5062328;28;20099;-76
2022/01/06 08:27:48;;;;;;;12.38;5.10;;;;;;;-0.07;100.00;101833.22;5058127;28;20122;-76
2022/01/06 08:30:13;;;;;;;11.45;3.35;;;;;;;0.14;100.00;101861.00;5065434;28;20417;-77
2022/01/06 08:32:38;;;;;;;15.90;3.80;;;;;;;0.42;100.00;101855.19;5062885;28;20040;-76
2022/01/06 08:35:04;;;;;;;14.50;3.70;;;;;;;0.51;100.00;101840.97;5044705;28;20139;-77
2022/01/06 08:37:29;;;;;;;8.73;2.65;;;;;;;0.72;100.00;101845.81;5062559;28;20028;-77
2022/01/06 08:39:55;;;;;;;6.63;2.50;;;;;;;0.89;100.00;101855.16;5044940;28;20116;-77
2022/01/06 08:42:20;;;;;;;8.95;2.15;;;;;;;1.00;100.00;101854.94;5059264;28;20032;-77
2022/01/06 08:44:45;;;;;;;14.15;2.83;;;;;;;1.13;100.00;101858.19;5042626;28;20048;-76
2022/01/06 08:47:11;;;;;;;11.48;2.42;;;;;;;1.32;100.00;101861.28;5060824;28;20384;-76
2022/01/06 08:49:37;;;;;;;11.27;2.60;;;;;;;1.38;100.00;101850.56;5065556;28;20032;-78
2022/01/06 08:52:03;;;;;;;10.85;2.78;;;;;;;1.50;100.00;101870.59;5064603;28;20044;-76
2022/01/06 08:54:28;;;;;;;14.55;3.45;;;;;;;1.53;100.00;101869.63;5064933;28;20024;-77
2022/01/06 08:56:53;;;;;;;12.02;3.38;;;;;;;1.46;100.00;101859.19;5059111;28;20040;-76
2022/01/06 08:59:19;;;;;;;10.63;3.38;;;;;;;1.61;100.00;101871.19;5065687;28;20024;-76
2022/01/06 09:01:44;;;;;;;10.82;3.10;;;;;;;1.75;100.00;101875.31;5048387;28;20040;-76
2022/01/06 09:04:09;;;;;;;9.73;3.65;;;;;;;1.90;100.00;101879.34;5059190;28;20033;-76
2022/01/06 09:06:35;;;;;;;11.75;3.28;;;;;;;2.00;99.82;101864.09;5058846;28;20386;-76
2022/01/06 09:09:01;;;;;;;7.97;3.15;;;;;;;2.17;99.42;101877.78;5042601;28;20025;-77
2022/01/06 09:11:26;;;;;;;11.27;4.65;;;;;;;2.11;98.58;101877.97;5060477;28;20031;-77
2022/01/06 09:13:51;;;;;;;13.35;4.25;;;;;;;2.33;99.03;101880.03;5062031;28;20036;-76
2022/01/06 09:16:16;;;;;;;11.00;4.38;;;;;;;2.65;97.55;101876.50;5061581;28;20035;-76
2022/01/06 09:18:42;;;;;;;13.75;3.80;;;;;;;2.90;95.54;101880.25;5062252;28;20490;-76
2022/01/06 09:21:08;;;;;;;7.70;3.42;;;;;;;3.03;94.19;101884.28;5057948;28;20040;-76
2022/01/06 09:23:34;;;;;;;11.05;3.75;;;;;;;3.12;93.55;101894.63;5062952;28;20616;-75
2022/01/06 09:25:59;;;;;;;11.52;3.65;;;;;;;3.12;93.89;101891.97;5061459;28;20089;-77
2022/01/06 09:28:25;;;;;;;9.10;3.90;;;;;;;3.07;94.06;101888.59;5061708;28;20467;-76
2022/01/06 09:30:51;;;;;;;13.38;4.28;;;;;;;3.18;94.03;101892.72;5060293;28;20036;-76
2022/01/06 09:33:18;;;;;;;15.70;3.97;;;;;;;3.20;95.00;101906.78;5043975;28;20467;-76
2022/01/06 09:35:44;;;;;;;15.00;4.22;;;;;;;3.38;94.27;101914.22;5061033;28;20031;-74
2022/01/06 09:38:10;;;;;;;14.23;4.00;;;;;;;3.61;93.55;101915.28;5067323;28;20047;-76
2022/01/06 09:40:35;;;;;;;7.88;3.33;;;;;;;4.14;91.37;101911.78;5062662;28;20576;-72
2022/01/06 09:43:00;;;;;;;11.35;4.05;;;;;;;4.46;88.29;101909.81;5064795;28;20447;-77
2022/01/06 09:45:27;;;;;;;10.55;3.78;;;;;;;4.71;87.54;101900.97;5056865;28;20031;-76
2022/01/06 09:47:53;;;;;;;11.52;3.50;;;;;;;5.34;86.71;101919.06;5059709;28;20086;-76
2022/01/06 09:50:19;;;;;;;9.30;3.03;;;;;;;5.60;86.02;101918.94;5043161;28;20540;-76
2022/01/06 09:52:45;;;;;;;11.35;3.50;;;;;;;5.42;82.61;101921.41;5059786;28;20040;-76
2022/01/06 09:55:11;;;;;;;10.82;4.20;;;;;;;5.75;84.58;101928.13;5045747;28;20048;-76
2022/01/06 09:57:36;;;;;;;17.00;4.82;;;;;;;6.02;83.46;101928.84;5043768;28;20155;-76
2022/01/06 10:00:04;;;;;;;14.98;5.47;;;;;;;6.29;81.93;101910.81;5058571;28;20470;-75
2022/01/06 10:02:37;;;;;;;8.95;3.10;;;;;;;6.67;81.34;101928.78;5058445;28;20777;-76
2022/01/06 10:05:04;;;;;;;16.35;3.90;;;;;;;6.83;77.27;101920.09;5060520;28;20024;-76
2022/01/06 10:07:38;;;;;;;11.65;3.70;;;;;;;7.22;76.08;101926.38;5060224;28;20119;-76
2022/01/06 10:10:04;;;;;;;;;;;;;;;7.17;74.83;101924.75;5057291;28;20470;-76
2022/01/06 10:12:29;;;;;;;8.93;3.08;;;;;;;7.50;73.53;101923.25;5060802;28;19927;-71
2022/01/06 10:14:55;;;;;;;9.82;3.28;;;;;;;7.57;73.42;101924.69;5058502;28;20025;-76
2022/01/06 10:17:33;;;;;;;11.80;2.75;;;;;;;7.28;72.81;101915.41;5062090;28;20044;-75
2022/01/06 10:20:08;;;;;;;13.43;3.25;;;;;;;7.29;74.17;101919.78;5063765;28;20024;-76
2022/01/06 10:22:42;;;;;;;10.40;3.33;;;;;;;7.53;73.11;101907.06;5062133;28;20040;-76
2022/01/06 10:25:08;;;;;;;;;;;;;;;7.20;73.83;101919.28;5063208;28;20059;-76
2022/01/06 10:27:33;;;;;;;10.25;3.35;;;;;;;7.74;72.07;101909.63;5059344;28;19951;-76
2022/01/06 10:30:05;;;;;;;13.98;3.28;;;;;;;7.37;72.50;101909.59;5063776;28;20044;-76
2022/01/06 10:32:32;;;;;;;13.50;3.75;;;;;;;7.74;73.53;101913.19;5059817;28;20025;-76
2022/01/06 10:35:02;;;;;;;17.45;3.65;;;;;;;8.30;71.50;101909.56;5062763;28;20027;-76
2022/01/06 10:37:38;;;;;;;12.18;3.33;;;;;;;7.78;71.31;101922.81;5043396;28;20077;-75
2022/01/06 10:40:09;;;;;;;7.10;3.17;;;;;;;8.25;70.48;101912.47;5061378;28;20036;-75
2022/01/06 10:42:36;;;;;;;14.20;4.05;;;;;;;8.35;71.05;101905.69;5041046;28;20040;-78
2022/01/06 10:45:10;;;;;;;8.13;3.00;;;;;;;8.89;69.40;101898.50;5045156;28;20135;-76
2022/01/06 10:47:45;;;;;;;13.45;3.33;;;;;;;8.79;68.40;101890.97;5041205;28;20397;-76
2022/01/06 10:50:16;;;;;;;7.50;3.17;;;;;;;8.64;68.76;101891.78;5051365;28;20597;-77
2022/01/06 10:52:50;;;;;;;12.85;3.70;;;;;;;8.39;68.84;101895.72;5061344;28;20078;-78
2022/01/06 10:55:18;;;;;;;8.60;3.20;;;;;;;8.42;69.23;101882.19;5061746;28;20020;-77
2022/01/06 10:57:54;;;;;;;11.32;3.05;;;;;;;8.63;70.62;101890.91;5059313;28;20020;-77
2022/01/06 11:00:21;;;;;;;19.38;4.47;;;;;;;8.48;68.19;101889.91;5055210;28;20023;-76
2022/01/06 11:02:46;;;;;;;19.08;3.90;;;;;;;8.54;69.19;101896.75;5059687;28;20037;-77
2022/01/06 11:05:11;;;;;;;17.58;3.97;;;;;;;8.40;67.57;101878.72;5062999;28;20033;-77
2022/01/06 11:07:37;;;;;;;11.38;3.22;;;;;;;8.62;68.19;101889.19;5053839;28;20071;-77
2022/01/06 11:10:13;;;;;;;11.95;3.47;;;;;;;8.83;67.68;101880.97;5064999;28;20029;-74
2022/01/06 11:12:38;;;;;;;16.17;3.65;;;;;;;9.33;67.92;101892.53;5047116;28;20331;-77
2022/01/06 11:15:04;;;;;;;15.93;3.72;;;;;;;9.50;65.68;101893.41;5059280;28;20423;-76
2022/01/06 11:17:29;;;;;;;18.77;4.03;;;;;;;9.79;65.44;101885.53;5060404;28;20028;-77
2022/01/06 11:19:55;;;;;;;13.82;3.47;;;;;;;9.56;66.25;101891.25;5058282;28;20115;-76
2022/01/06 11:22:24;;;;;;;12.43;2.97;;;;;;;9.52;66.98;101870.91;5059715;28;20027;-76
2022/01/06 11:24:57;;;;;;;12.77;3.45;;;;;;;9.64;64.82;101887.25;5058085;28;20028;-77